sensor_id;sensor_type;location;lat;lon;timestamp;P1;durP1;ratioP1;P2;durP2;ratioP2
53867;SDS011;41577;47.470;19.080;2023-09-18T00:00:07;7.82;;;4.90;;
53867;SDS011;41577;47.470;19.080;2023-09-18T00:00:20;7.15;;;5.20;;
53867;SDS011;41577;47.470;19.080;2023-09-18T00:00:33;6.57;;;5.30;;
53867;SDS011;41577;47.470;19.080;2023-09-18T00:00:46;6.30;;;5.07;;
53867;SDS011;41577;47.470;19.080;2023-09-18T00:00:58;6.05;;;5.35;;
53867;SDS011;41577;47.470;19.080;2023-09-18T00:01:11;5.68;;;5.07;;
53867;SDS011;41577;47.470;19.080;2023-09-18T00:01:23;5.70;;;5.10;;
53867;SDS011;41577;47.470;19.080;2023-09-18T00:01:35;7.68;;;5.15;;
53867;SDS011;41577;47.470;19.080;2023-09-18T00:01:47;9.40;;;5.35;;
53867;SDS011;41577;47.470;19.080;2023-09-18T00:01:59;7.97;;;5.20;;
53867;SDS011;41577;47.470;19.080;2023-09-18T00:02:11;7.40;;;5.22;;
53867;SDS011;41577;47.470;19.080;2023-09-18T00:02:23;6.85;;;5.05;;
53867;SDS011;41577;47.470;19.080;2023-09-18T00:02:36;6.78;;;4.85;;
53867;SDS011;41577;47.470;19.080;2023-09-18T00:02:48;8.32;;;5.40;;
53867;SDS011;41577;47.470;19.080;2023-09-18T00:03:00;7.22;;;5.55;;
53867;SDS011;41577;47.470;19.080;2023-09-18T00:03:12;6.28;;;5.25;;
53867;SDS011;41577;47.470;19.080;2023-09-18T00:03:24;6.97;;;5.30;;
53867;SDS011;41577;47.470;19.080;2023-09-18T00:03:36;9.02;;;5.40;;
53867;SDS011;41577;47.470;19.080;2023-09-18T00:03:48;9.93;;;5.57;;
53867;SDS011;41577;47.470;19.080;2023-09-18T00:04:00;8.23;;;4.97;;
53867;SDS011;41577;47.470;19.080;2023-09-18T00:04:12;6.95;;;5.00;;
53867;SDS011;41577;47.470;19.080;2023-09-18T00:04:24;7.28;;;5.05;;
53867;SDS011;41577;47.470;19.080;2023-09-18T00:04:36;6.82;;;5.30;;
53867;SDS011;41577;47.470;19.080;2023-09-18T00:04:48;7.03;;;5.50;;
53867;SDS011;41577;47.470;19.080;2023-09-18T00:05:00;5.57;;;5.07;;
53867;SDS011;41577;47.470;19.080;2023-09-18T00:05:12;6.47;;;5.28;;
53867;SDS011;41577;47.470;19.080;2023-09-18T00:05:24;6.78;;;5.35;;
53867;SDS011;41577;47.470;19.080;2023-09-18T00:05:38;6.82;;;5.50;;
53867;SDS011;41577;47.470;19.080;2023-09-18T00:05:50;7.57;;;5.53;;
53867;SDS011;41577;47.470;19.080;2023-09-18T00:06:03;6.78;;;5.03;;
53867;SDS011;41577;47.470;19.080;2023-09-18T00:06:15;6.03;;;4.72;;
53867;SDS011;41577;47.470;19.080;2023-09-18T00:06:27;6.20;;;5.30;;
53867;SDS011;41577;47.470;19.080;2023-09-18T00:06:39;5.90;;;5.30;;
53867;SDS011;41577;47.470;19.080;2023-09-18T00:06:51;5.25;;;4.75;;
53867;SDS011;41577;47.470;19.080;2023-09-18T00:07:04;6.07;;;5.03;;
53867;SDS011;41577;47.470;19.080;2023-09-18T00:07:16;6.78;;;5.20;;
53867;SDS011;41577;47.470;19.080;2023-09-18T00:07:28;7.07;;;5.25;;
53867;SDS011;41577;47.470;19.080;2023-09-18T00:07:40;6.63;;;5.40;;
53867;SDS011;41577;47.470;19.080;2023-09-18T00:07:52;6.35;;;5.30;;
53867;SDS011;41577;47.470;19.080;2023-09-18T00:08:04;7.68;;;4.90;;
53867;SDS011;41577;47.470;19.080;2023-09-18T00:08:16;8.57;;;4.97;;
53867;SDS011;41577;47.470;19.080;2023-09-18T00:08:29;7.85;;;4.90;;
53867;SDS011;41577;47.470;19.080;2023-09-18T00:08:43;7.00;;;5.03;;
53867;SDS011;41577;47.470;19.080;2023-09-18T00:08:54;7.30;;;5.28;;
53867;SDS011;41577;47.470;19.080;2023-09-18T00:09:06;6.88;;;5.30;;
53867;SDS011;41577;47.470;19.080;2023-09-18T00:09:18;6.03;;;5.30;;
53867;SDS011;41577;47.470;19.080;2023-09-18T00:09:30;14.45;;;5.72;;
53867;SDS011;41577;47.470;19.080;2023-09-18T00:09:42;14.20;;;5.63;;
53867;SDS011;41577;47.470;19.080;2023-09-18T00:09:54;10.95;;;5.63;;
53867;SDS011;41577;47.470;19.080;2023-09-18T00:10:06;6.45;;;5.30;;
53867;SDS011;41577;47.470;19.080;2023-09-18T00:10:18;6.78;;;5.13;;
53867;SDS011;41577;47.470;19.080;2023-09-18T00:10:34;6.15;;;5.15;;
53867;SDS011;41577;47.470;19.080;2023-09-18T00:10:47;7.57;;;5.50;;
53867;SDS011;41577;47.470;19.080;2023-09-18T00:11:00;9.30;;;5.63;;
53867;SDS011;41577;47.470;19.080;2023-09-18T00:11:12;8.80;;;5.63;;
53867;SDS011;41577;47.470;19.080;2023-09-18T00:11:24;6.30;;;5.45;;
53867;SDS011;41577;47.470;19.080;2023-09-18T00:11:36;7.55;;;5.38;;
53867;SDS011;41577;47.470;19.080;2023-09-18T00:11:48;8.35;;;5.47;;
53867;SDS011;41577;47.470;19.080;2023-09-18T00:12:00;9.95;;;5.32;;
53867;SDS011;41577;47.470;19.080;2023-09-18T00:12:12;8.88;;;5.07;;
53867;SDS011;41577;47.470;19.080;2023-09-18T00:12:24;5.88;;;5.10;;
53867;SDS011;41577;47.470;19.080;2023-09-18T00:12:36;6.35;;;4.85;;
53867;SDS011;41577;47.470;19.080;2023-09-18T00:12:47;8.45;;;5.45;;
53867;SDS011;41577;47.470;19.080;2023-09-18T00:13:00;9.38;;;5.47;;
53867;SDS011;41577;47.470;19.080;2023-09-18T00:13:12;9.18;;;5.50;;
53867;SDS011;41577;47.470;19.080;2023-09-18T00:13:24;6.97;;;5.38;;
53867;SDS011;41577;47.470;19.080;2023-09-18T00:13:35;7.30;;;5.57;;
53867;SDS011;41577;47.470;19.080;2023-09-18T00:13:49;8.45;;;5.70;;
53867;SDS011;41577;47.470;19.080;2023-09-18T00:14:01;10.52;;;5.47;;
53867;SDS011;41577;47.470;19.080;2023-09-18T00:14:13;9.63;;;5.53;;
53867;SDS011;41577;47.470;19.080;2023-09-18T00:14:25;8.73;;;5.68;;
53867;SDS011;41577;47.470;19.080;2023-09-18T00:14:37;9.48;;;5.57;;
53867;SDS011;41577;47.470;19.080;2023-09-18T00:14:49;7.93;;;5.25;;
53867;SDS011;41577;47.470;19.080;2023-09-18T00:15:02;8.30;;;5.43;;
53867;SDS011;41577;47.470;19.080;2023-09-18T00:15:14;8.57;;;5.32;;
53867;SDS011;41577;47.470;19.080;2023-09-18T00:15:26;8.48;;;5.47;;
53867;SDS011;41577;47.470;19.080;2023-09-18T00:15:38;7.85;;;5.28;;
53867;SDS011;41577;47.470;19.080;2023-09-18T00:15:53;6.28;;;5.07;;
53867;SDS011;41577;47.470;19.080;2023-09-18T00:16:06;5.97;;;5.00;;
53867;SDS011;41577;47.470;19.080;2023-09-18T00:16:18;6.50;;;5.32;;
53867;SDS011;41577;47.470;19.080;2023-09-18T00:16:30;7.20;;;5.50;;
53867;SDS011;41577;47.470;19.080;2023-09-18T00:16:58;8.10;;;5.20;;
53867;SDS011;41577;47.470;19.080;2023-09-18T00:17:10;6.85;;;5.15;;
53867;SDS011;41577;47.470;19.080;2023-09-18T00:17:22;5.30;;;4.80;;
53867;SDS011;41577;47.470;19.080;2023-09-18T00:17:34;5.63;;;4.78;;
53867;SDS011;41577;47.470;19.080;2023-09-18T00:17:46;5.78;;;4.63;;
53867;SDS011;41577;47.470;19.080;2023-09-18T00:17:59;7.07;;;4.93;;
53867;SDS011;41577;47.470;19.080;2023-09-18T00:18:11;9.38;;;5.13;;
53867;SDS011;41577;47.470;19.080;2023-09-18T00:18:23;8.48;;;4.95;;
53867;SDS011;41577;47.470;19.080;2023-09-18T00:18:35;6.60;;;4.55;;
53867;SDS011;41577;47.470;19.080;2023-09-18T00:18:47;5.25;;;4.65;;
53867;SDS011;41577;47.470;19.080;2023-09-18T00:18:59;8.43;;;5.18;;
53867;SDS011;41577;47.470;19.080;2023-09-18T00:19:11;8.57;;;5.30;;
53867;SDS011;41577;47.470;19.080;2023-09-18T00:19:23;9.48;;;5.30;;
53867;SDS011;41577;47.470;19.080;2023-09-18T00:19:35;7.30;;;5.45;;
53867;SDS011;41577;47.470;19.080;2023-09-18T00:19:47;8.10;;;5.30;;
53867;SDS011;41577;47.470;19.080;2023-09-18T00:19:59;13.60;;;5.28;;
53867;SDS011;41577;47.470;19.080;2023-09-18T00:20:11;12.02;;;5.30;;
53867;SDS011;41577;47.470;19.080;2023-09-18T00:20:23;12.90;;;5.40;;
53867;SDS011;41577;47.470;19.080;2023-09-18T00:20:35;5.78;;;5.15;;
53867;SDS011;41577;47.470;19.080;2023-09-18T00:20:47;6.70;;;4.95;;
53867;SDS011;41577;47.470;19.080;2023-09-18T00:20:59;7.47;;;5.30;;
53867;SDS011;41577;47.470;19.080;2023-09-18T00:21:11;9.73;;;5.47;;
53867;SDS011;41577;47.470;19.080;2023-09-18T00:21:23;8.32;;;5.30;;
53867;SDS011;41577;47.470;19.080;2023-09-18T00:21:36;9.88;;;5.43;;
53867;SDS011;41577;47.470;19.080;2023-09-18T00:21:48;8.25;;;4.90;;
53867;SDS011;41577;47.470;19.080;2023-09-18T00:22:00;8.30;;;4.95;;
53867;SDS011;41577;47.470;19.080;2023-09-18T00:22:12;5.55;;;5.03;;
53867;SDS011;41577;47.470;19.080;2023-09-18T00:22:24;6.50;;;5.20;;
53867;SDS011;41577;47.470;19.080;2023-09-18T00:22:36;8.27;;;5.30;;
53867;SDS011;41577;47.470;19.080;2023-09-18T00:22:48;12.95;;;5.35;;
53867;SDS011;41577;47.470;19.080;2023-09-18T00:23:00;12.18;;;5.35;;
53867;SDS011;41577;47.470;19.080;2023-09-18T00:23:20;7.57;;;5.65;;
53867;SDS011;41577;47.470;19.080;2023-09-18T00:23:32;7.75;;;5.75;;
53867;SDS011;41577;47.470;19.080;2023-09-18T00:23:45;10.70;;;5.50;;
53867;SDS011;41577;47.470;19.080;2023-09-18T00:23:57;9.07;;;5.40;;
53867;SDS011;41577;47.470;19.080;2023-09-18T00:24:09;7.30;;;4.95;;
53867;SDS011;41577;47.470;19.080;2023-09-18T00:24:20;7.97;;;5.32;;
53867;SDS011;41577;47.470;19.080;2023-09-18T00:24:32;7.63;;;5.50;;
53867;SDS011;41577;47.470;19.080;2023-09-18T00:24:44;8.10;;;5.57;;
53867;SDS011;41577;47.470;19.080;2023-09-18T00:24:56;5.95;;;4.90;;
53867;SDS011;41577;47.470;19.080;2023-09-18T00:25:08;5.45;;;4.95;;
53867;SDS011;41577;47.470;19.080;2023-09-18T00:25:20;6.75;;;5.28;;
53867;SDS011;41577;47.470;19.080;2023-09-18T00:25:32;8.93;;;5.25;;
53867;SDS011;41577;47.470;19.080;2023-09-18T00:25:44;7.57;;;5.38;;
53867;SDS011;41577;47.470;19.080;2023-09-18T00:25:56;6.72;;;5.30;;
53867;SDS011;41577;47.470;19.080;2023-09-18T00:26:08;5.50;;;4.97;;
53867;SDS011;41577;47.470;19.080;2023-09-18T00:26:20;5.55;;;4.75;;
53867;SDS011;41577;47.470;19.080;2023-09-18T00:26:36;7.75;;;5.47;;
53867;SDS011;41577;47.470;19.080;2023-09-18T00:26:48;9.05;;;5.65;;
53867;SDS011;41577;47.470;19.080;2023-09-18T00:27:00;9.63;;;5.65;;
53867;SDS011;41577;47.470;19.080;2023-09-18T00:27:12;7.15;;;5.15;;
53867;SDS011;41577;47.470;19.080;2023-09-18T00:27:25;5.32;;;4.82;;
53867;SDS011;41577;47.470;19.080;2023-09-18T00:27:38;5.32;;;4.82;;
53867;SDS011;41577;47.470;19.080;2023-09-18T00:27:50;8.40;;;5.53;;
53867;SDS011;41577;47.470;19.080;2023-09-18T00:28:02;11.80;;;5.38;;
53867;SDS011;41577;47.470;19.080;2023-09-18T00:28:14;12.60;;;5.07;;
53867;SDS011;41577;47.470;19.080;2023-09-18T00:28:26;8.80;;;5.22;;
53867;SDS011;41577;47.470;19.080;2023-09-18T00:28:38;10.00;;;5.47;;
53867;SDS011;41577;47.470;19.080;2023-09-18T00:28:52;6.57;;;5.43;;
53867;SDS011;41577;47.470;19.080;2023-09-18T00:29:04;5.20;;;4.70;;
53867;SDS011;41577;47.470;19.080;2023-09-18T00:29:16;5.78;;;5.05;;
53867;SDS011;41577;47.470;19.080;2023-09-18T00:29:28;8.30;;;5.30;;
53867;SDS011;41577;47.470;19.080;2023-09-18T00:29:40;10.52;;;5.13;;
53867;SDS011;41577;47.470;19.080;2023-09-18T00:29:52;10.63;;;5.15;;
53867;SDS011;41577;47.470;19.080;2023-09-18T00:30:05;6.35;;;4.53;;
53867;SDS011;41577;47.470;19.080;2023-09-18T00:30:17;5.25;;;4.50;;
53867;SDS011;41577;47.470;19.080;2023-09-18T00:30:30;7.18;;;4.88;;
53867;SDS011;41577;47.470;19.080;2023-09-18T00:30:46;8.00;;;4.90;;
53867;SDS011;41577;47.470;19.080;2023-09-18T00:30:59;5.45;;;4.43;;
53867;SDS011;41577;47.470;19.080;2023-09-18T00:31:11;6.00;;;4.70;;
53867;SDS011;41577;47.470;19.080;2023-09-18T00:31:23;6.22;;;4.88;;
53867;SDS011;41577;47.470;19.080;2023-09-18T00:31:35;8.27;;;5.25;;
53867;SDS011;41577;47.470;19.080;2023-09-18T00:31:47;10.13;;;5.63;;
53867;SDS011;41577;47.470;19.080;2023-09-18T00:31:59;10.75;;;5.47;;
53867;SDS011;41577;47.470;19.080;2023-09-18T00:32:11;9.60;;;5.45;;
53867;SDS011;41577;47.470;19.080;2023-09-18T00:32:23;8.48;;;5.38;;
53867;SDS011;41577;47.470;19.080;2023-09-18T00:32:36;7.75;;;5.20;;
53867;SDS011;41577;47.470;19.080;2023-09-18T00:32:48;8.75;;;5.40;;
53867;SDS011;41577;47.470;19.080;2023-09-18T00:33:00;7.47;;;5.20;;
53867;SDS011;41577;47.470;19.080;2023-09-18T00:33:12;7.18;;;5.20;;
53867;SDS011;41577;47.470;19.080;2023-09-18T00:33:24;5.97;;;5.18;;
53867;SDS011;41577;47.470;19.080;2023-09-18T00:33:37;7.60;;;5.30;;
53867;SDS011;41577;47.470;19.080;2023-09-18T00:33:49;9.20;;;5.10;;
53867;SDS011;41577;47.470;19.080;2023-09-18T00:34:00;8.77;;;4.80;;
53867;SDS011;41577;47.470;19.080;2023-09-18T00:34:12;5.30;;;4.72;;
53867;SDS011;41577;47.470;19.080;2023-09-18T00:34:24;5.97;;;4.80;;
53867;SDS011;41577;47.470;19.080;2023-09-18T00:34:36;5.80;;;4.60;;
53867;SDS011;41577;47.470;19.080;2023-09-18T00:34:48;5.63;;;4.45;;
53867;SDS011;41577;47.470;19.080;2023-09-18T00:35:00;5.13;;;4.63;;
53867;SDS011;41577;47.470;19.080;2023-09-18T00:35:12;9.75;;;5.07;;
53867;SDS011;41577;47.470;19.080;2023-09-18T00:35:25;10.77;;;5.22;;
53867;SDS011;41577;47.470;19.080;2023-09-18T00:35:37;10.90;;;5.13;;
53867;SDS011;41577;47.470;19.080;2023-09-18T00:35:50;5.80;;;4.85;;
53867;SDS011;41577;47.470;19.080;2023-09-18T00:36:03;8.68;;;5.05;;
53867;SDS011;41577;47.470;19.080;2023-09-18T00:36:15;9.50;;;5.50;;
53867;SDS011;41577;47.470;19.080;2023-09-18T00:36:27;9.32;;;5.65;;
53867;SDS011;41577;47.470;19.080;2023-09-18T00:36:39;9.70;;;5.57;;
53867;SDS011;41577;47.470;19.080;2023-09-18T00:36:51;6.90;;;5.10;;
53867;SDS011;41577;47.470;19.080;2023-09-18T00:37:04;6.47;;;4.85;;
53867;SDS011;41577;47.470;19.080;2023-09-18T00:37:16;6.70;;;4.60;;
53867;SDS011;41577;47.470;19.080;2023-09-18T00:37:28;6.45;;;4.57;;
53867;SDS011;41577;47.470;19.080;2023-09-18T00:37:40;6.70;;;4.57;;
53867;SDS011;41577;47.470;19.080;2023-09-18T00:37:52;7.85;;;4.90;;
53867;SDS011;41577;47.470;19.080;2023-09-18T00:38:04;8.15;;;5.03;;
53867;SDS011;41577;47.470;19.080;2023-09-18T00:38:16;10.48;;;5.20;;
53867;SDS011;41577;47.470;19.080;2023-09-18T00:38:28;10.25;;;5.07;;
53867;SDS011;41577;47.470;19.080;2023-09-18T00:38:40;8.75;;;5.15;;
53867;SDS011;41577;47.470;19.080;2023-09-18T00:38:52;8.63;;;5.10;;
53867;SDS011;41577;47.470;19.080;2023-09-18T00:39:05;7.68;;;4.97;;
53867;SDS011;41577;47.470;19.080;2023-09-18T00:39:17;8.23;;;4.97;;
53867;SDS011;41577;47.470;19.080;2023-09-18T00:39:29;7.75;;;4.68;;
53867;SDS011;41577;47.470;19.080;2023-09-18T00:39:41;8.98;;;4.60;;
53867;SDS011;41577;47.470;19.080;2023-09-18T00:39:54;6.93;;;4.55;;
53867;SDS011;41577;47.470;19.080;2023-09-18T00:40:06;5.90;;;4.55;;
53867;SDS011;41577;47.470;19.080;2023-09-18T00:40:19;5.32;;;4.80;;
53867;SDS011;41577;47.470;19.080;2023-09-18T00:40:31;6.68;;;5.22;;
53867;SDS011;41577;47.470;19.080;2023-09-18T00:40:43;6.50;;;5.15;;
53867;SDS011;41577;47.470;19.080;2023-09-18T00:40:55;5.40;;;4.90;;
53867;SDS011;41577;47.470;19.080;2023-09-18T00:41:07;5.05;;;4.55;;
53867;SDS011;41577;47.470;19.080;2023-09-18T00:41:19;5.25;;;4.57;;
53867;SDS011;41577;47.470;19.080;2023-09-18T00:41:32;6.30;;;4.60;;
53867;SDS011;41577;47.470;19.080;2023-09-18T00:41:44;9.18;;;4.97;;
53867;SDS011;41577;47.470;19.080;2023-09-18T00:41:56;9.20;;;5.20;;
53867;SDS011;41577;47.470;19.080;2023-09-18T00:42:08;8.25;;;5.07;;
53867;SDS011;41577;47.470;19.080;2023-09-18T00:42:21;4.95;;;4.50;;
53867;SDS011;41577;47.470;19.080;2023-09-18T00:42:33;5.38;;;4.70;;
53867;SDS011;41577;47.470;19.080;2023-09-18T00:42:45;6.32;;;4.95;;
53867;SDS011;41577;47.470;19.080;2023-09-18T00:42:57;5.55;;;4.80;;
53867;SDS011;41577;47.470;19.080;2023-09-18T00:43:09;5.18;;;4.70;;
53867;SDS011;41577;47.470;19.080;2023-09-18T00:43:21;7.20;;;4.80;;
53867;SDS011;41577;47.470;19.080;2023-09-18T00:43:36;7.65;;;5.03;;
53867;SDS011;41577;47.470;19.080;2023-09-18T00:43:48;6.70;;;5.10;;
53867;SDS011;41577;47.470;19.080;2023-09-18T00:44:01;11.73;;;5.15;;
53867;SDS011;41577;47.470;19.080;2023-09-18T00:44:14;11.95;;;4.93;;
53867;SDS011;41577;47.470;19.080;2023-09-18T00:44:26;6.72;;;4.45;;
53867;SDS011;41577;47.470;19.080;2023-09-18T00:44:39;5.95;;;4.50;;
53867;SDS011;41577;47.470;19.080;2023-09-18T00:44:51;9.68;;;4.88;;
53867;SDS011;41577;47.470;19.080;2023-09-18T00:45:04;9.38;;;4.72;;
53867;SDS011;41577;47.470;19.080;2023-09-18T00:45:16;9.55;;;4.70;;
53867;SDS011;41577;47.470;19.080;2023-09-18T00:45:29;10.80;;;4.80;;
53867;SDS011;41577;47.470;19.080;2023-09-18T00:45:42;6.55;;;4.88;;
53867;SDS011;41577;47.470;19.080;2023-09-18T00:45:57;7.10;;;4.72;;
53867;SDS011;41577;47.470;19.080;2023-09-18T00:46:10;7.35;;;4.82;;
53867;SDS011;41577;47.470;19.080;2023-09-18T00:46:23;8.30;;;4.75;;
53867;SDS011;41577;47.470;19.080;2023-09-18T00:46:35;8.25;;;5.00;;
53867;SDS011;41577;47.470;19.080;2023-09-18T00:46:48;6.95;;;5.55;;
53867;SDS011;41577;47.470;19.080;2023-09-18T00:47:01;6.68;;;5.50;;
53867;SDS011;41577;47.470;19.080;2023-09-18T00:47:13;5.65;;;4.90;;
53867;SDS011;41577;47.470;19.080;2023-09-18T00:47:27;5.00;;;4.50;;
53867;SDS011;41577;47.470;19.080;2023-09-18T00:47:40;6.18;;;4.90;;
53867;SDS011;41577;47.470;19.080;2023-09-18T00:47:52;6.05;;;4.80;;
53867;SDS011;41577;47.470;19.080;2023-09-18T00:48:05;11.50;;;4.88;;
53867;SDS011;41577;47.470;19.080;2023-09-18T00:48:18;15.10;;;4.95;;
53867;SDS011;41577;47.470;19.080;2023-09-18T00:48:30;13.50;;;5.13;;
53867;SDS011;41577;47.470;19.080;2023-09-18T00:48:43;9.20;;;4.85;;
53867;SDS011;41577;47.470;19.080;2023-09-18T00:48:55;11.02;;;4.95;;
53867;SDS011;41577;47.470;19.080;2023-09-18T00:49:07;11.32;;;4.60;;
53867;SDS011;41577;47.470;19.080;2023-09-18T00:49:19;6.65;;;4.72;;
53867;SDS011;41577;47.470;19.080;2023-09-18T00:49:32;9.05;;;4.80;;
53867;SDS011;41577;47.470;19.080;2023-09-18T00:49:44;8.57;;;4.63;;
53867;SDS011;41577;47.470;19.080;2023-09-18T00:50:00;10.48;;;4.70;;
53867;SDS011;41577;47.470;19.080;2023-09-18T00:50:13;9.43;;;4.57;;
53867;SDS011;41577;47.470;19.080;2023-09-18T00:50:26;5.13;;;4.45;;
53867;SDS011;41577;47.470;19.080;2023-09-18T00:50:38;6.45;;;4.47;;
53867;SDS011;41577;47.470;19.080;2023-09-18T00:50:50;7.82;;;4.70;;
53867;SDS011;41577;47.470;19.080;2023-09-18T00:51:02;7.72;;;4.78;;
53867;SDS011;41577;47.470;19.080;2023-09-18T00:51:14;5.68;;;4.78;;
53867;SDS011;41577;47.470;19.080;2023-09-18T00:51:27;5.97;;;4.97;;
53867;SDS011;41577;47.470;19.080;2023-09-18T00:51:39;6.75;;;5.18;;
53867;SDS011;41577;47.470;19.080;2023-09-18T00:51:52;7.07;;;4.90;;
53867;SDS011;41577;47.470;19.080;2023-09-18T00:52:04;7.47;;;4.55;;
53867;SDS011;41577;47.470;19.080;2023-09-18T00:52:17;7.82;;;4.63;;
53867;SDS011;41577;47.470;19.080;2023-09-18T00:52:31;7.20;;;4.85;;
53867;SDS011;41577;47.470;19.080;2023-09-18T00:52:43;6.57;;;5.10;;
53867;SDS011;41577;47.470;19.080;2023-09-18T00:52:55;6.22;;;5.00;;
53867;SDS011;41577;47.470;19.080;2023-09-18T00:53:08;5.47;;;4.78;;
53867;SDS011;41577;47.470;19.080;2023-09-18T00:53:21;5.17;;;4.67;;
53867;SDS011;41577;47.470;19.080;2023-09-18T00:53:34;5.40;;;4.85;;
53867;SDS011;41577;47.470;19.080;2023-09-18T00:53:48;7.00;;;4.80;;
53867;SDS011;41577;47.470;19.080;2023-09-18T00:54:01;10.05;;;4.78;;
53867;SDS011;41577;47.470;19.080;2023-09-18T00:54:13;10.73;;;4.68;;
53867;SDS011;41577;47.470;19.080;2023-09-18T00:54:28;9.25;;;4.38;;
53867;SDS011;41577;47.470;19.080;2023-09-18T00:54:41;4.43;;;3.95;;
53867;SDS011;41577;47.470;19.080;2023-09-18T00:54:55;5.15;;;4.38;;
53867;SDS011;41577;47.470;19.080;2023-09-18T00:55:07;6.30;;;4.72;;
53867;SDS011;41577;47.470;19.080;2023-09-18T00:55:19;8.95;;;4.43;;
53867;SDS011;41577;47.470;19.080;2023-09-18T00:55:31;8.77;;;4.57;;
53867;SDS011;41577;47.470;19.080;2023-09-18T00:55:43;6.22;;;5.07;;
53867;SDS011;41577;47.470;19.080;2023-09-18T00:55:56;9.88;;;5.90;;
53867;SDS011;41577;47.470;19.080;2023-09-18T00:56:10;9.93;;;5.93;;
53867;SDS011;41577;47.470;19.080;2023-09-18T00:56:23;7.72;;;5.20;;
53867;SDS011;41577;47.470;19.080;2023-09-18T00:56:38;6.93;;;5.10;;
53867;SDS011;41577;47.470;19.080;2023-09-18T00:56:50;7.07;;;5.10;;
53867;SDS011;41577;47.470;19.080;2023-09-18T00:57:04;6.95;;;4.75;;
53867;SDS011;41577;47.470;19.080;2023-09-18T00:57:17;7.30;;;4.68;;
53867;SDS011;41577;47.470;19.080;2023-09-18T00:57:29;7.68;;;4.88;;
53867;SDS011;41577;47.470;19.080;2023-09-18T00:57:41;7.07;;;4.78;;
53867;SDS011;41577;47.470;19.080;2023-09-18T00:57:54;7.60;;;4.63;;
53867;SDS011;41577;47.470;19.080;2023-09-18T00:58:06;8.20;;;4.50;;
53867;SDS011;41577;47.470;19.080;2023-09-18T00:58:19;10.02;;;5.00;;
53867;SDS011;41577;47.470;19.080;2023-09-18T00:58:31;8.80;;;5.22;;
53867;SDS011;41577;47.470;19.080;2023-09-18T00:58:44;6.60;;;5.03;;
53867;SDS011;41577;47.470;19.080;2023-09-18T00:58:57;6.07;;;5.00;;
53867;SDS011;41577;47.470;19.080;2023-09-18T00:59:12;6.00;;;4.88;;
53867;SDS011;41577;47.470;19.080;2023-09-18T00:59:24;6.53;;;5.20;;
53867;SDS011;41577;47.470;19.080;2023-09-18T00:59:36;7.15;;;5.25;;
53867;SDS011;41577;47.470;19.080;2023-09-18T00:59:48;7.40;;;4.93;;
53867;SDS011;41577;47.470;19.080;2023-09-18T01:00:01;7.63;;;4.82;;
53867;SDS011;41577;47.470;19.080;2023-09-18T01:00:13;8.57;;;4.65;;
53867;SDS011;41577;47.470;19.080;2023-09-18T01:00:26;6.68;;;4.50;;
53867;SDS011;41577;47.470;19.080;2023-09-18T01:00:38;5.75;;;4.32;;
53867;SDS011;41577;47.470;19.080;2023-09-18T01:00:51;5.55;;;4.38;;
53867;SDS011;41577;47.470;19.080;2023-09-18T01:01:03;5.97;;;4.32;;
53867;SDS011;41577;47.470;19.080;2023-09-18T01:01:15;5.28;;;4.22;;
53867;SDS011;41577;47.470;19.080;2023-09-18T01:01:30;4.65;;;4.25;;
53867;SDS011;41577;47.470;19.080;2023-09-18T01:01:43;4.80;;;4.43;;
53867;SDS011;41577;47.470;19.080;2023-09-18T01:01:58;7.32;;;4.60;;
53867;SDS011;41577;47.470;19.080;2023-09-18T01:02:11;8.05;;;4.53;;
53867;SDS011;41577;47.470;19.080;2023-09-18T01:02:23;5.57;;;4.55;;
53867;SDS011;41577;47.470;19.080;2023-09-18T01:02:35;7.22;;;5.07;;
53867;SDS011;41577;47.470;19.080;2023-09-18T01:02:47;9.25;;;5.25;;
53867;SDS011;41577;47.470;19.080;2023-09-18T01:03:00;8.23;;;5.13;;
53867;SDS011;41577;47.470;19.080;2023-09-18T01:03:13;5.30;;;4.80;;
53867;SDS011;41577;47.470;19.080;2023-09-18T01:03:25;6.03;;;4.80;;
53867;SDS011;41577;47.470;19.080;2023-09-18T01:03:37;6.30;;;5.10;;
53867;SDS011;41577;47.470;19.080;2023-09-18T01:03:49;5.65;;;5.10;;
53867;SDS011;41577;47.470;19.080;2023-09-18T01:04:02;5.47;;;4.75;;
53867;SDS011;41577;47.470;19.080;2023-09-18T01:04:14;5.43;;;4.67;;
53867;SDS011;41577;47.470;19.080;2023-09-18T01:04:26;6.03;;;5.00;;
53867;SDS011;41577;47.470;19.080;2023-09-18T01:04:41;7.07;;;5.20;;
53867;SDS011;41577;47.470;19.080;2023-09-18T01:04:53;7.25;;;5.22;;
53867;SDS011;41577;47.470;19.080;2023-09-18T01:05:07;5.78;;;4.93;;
53867;SDS011;41577;47.470;19.080;2023-09-18T01:05:19;5.78;;;4.53;;
53867;SDS011;41577;47.470;19.080;2023-09-18T01:05:31;9.60;;;4.50;;
53867;SDS011;41577;47.470;19.080;2023-09-18T01:05:44;11.18;;;4.90;;
53867;SDS011;41577;47.470;19.080;2023-09-18T01:05:56;8.50;;;4.72;;
53867;SDS011;41577;47.470;19.080;2023-09-18T01:06:09;5.13;;;4.68;;
53867;SDS011;41577;47.470;19.080;2023-09-18T01:06:21;5.20;;;4.70;;
53867;SDS011;41577;47.470;19.080;2023-09-18T01:06:33;5.47;;;4.70;;
53867;SDS011;41577;47.470;19.080;2023-09-18T01:06:45;5.90;;;4.53;;
53867;SDS011;41577;47.470;19.080;2023-09-18T01:06:57;7.45;;;4.70;;
53867;SDS011;41577;47.470;19.080;2023-09-18T01:07:09;7.80;;;4.72;;
53867;SDS011;41577;47.470;19.080;2023-09-18T01:07:21;9.00;;;4.70;;
53867;SDS011;41577;47.470;19.080;2023-09-18T01:07:33;8.98;;;4.93;;
53867;SDS011;41577;47.470;19.080;2023-09-18T01:07:46;9.70;;;5.05;;
53867;SDS011;41577;47.470;19.080;2023-09-18T01:07:58;8.98;;;4.80;;
53867;SDS011;41577;47.470;19.080;2023-09-18T01:08:10;8.43;;;4.57;;
53867;SDS011;41577;47.470;19.080;2023-09-18T01:08:22;6.43;;;4.65;;
53867;SDS011;41577;47.470;19.080;2023-09-18T01:08:34;8.40;;;4.90;;
53867;SDS011;41577;47.470;19.080;2023-09-18T01:08:47;8.48;;;5.20;;
53867;SDS011;41577;47.470;19.080;2023-09-18T01:08:59;6.75;;;5.15;;
53867;SDS011;41577;47.470;19.080;2023-09-18T01:09:11;6.57;;;4.88;;
53867;SDS011;41577;47.470;19.080;2023-09-18T01:09:24;5.88;;;4.75;;
53867;SDS011;41577;47.470;19.080;2023-09-18T01:09:36;6.03;;;5.00;;
53867;SDS011;41577;47.470;19.080;2023-09-18T01:09:48;5.90;;;5.00;;
53867;SDS011;41577;47.470;19.080;2023-09-18T01:10:00;6.22;;;4.75;;
53867;SDS011;41577;47.470;19.080;2023-09-18T01:10:12;5.93;;;4.68;;
53867;SDS011;41577;47.470;19.080;2023-09-18T01:10:25;6.60;;;4.50;;
53867;SDS011;41577;47.470;19.080;2023-09-18T01:10:45;8.55;;;4.72;;
53867;SDS011;41577;47.470;19.080;2023-09-18T01:11:05;7.97;;;5.10;;
53867;SDS011;41577;47.470;19.080;2023-09-18T01:11:24;5.63;;;4.90;;
53867;SDS011;41577;47.470;19.080;2023-09-18T01:11:43;5.28;;;4.70;;
53867;SDS011;41577;47.470;19.080;2023-09-18T01:12:04;6.25;;;4.90;;
53867;SDS011;41577;47.470;19.080;2023-09-18T01:12:23;6.38;;;5.38;;
53867;SDS011;41577;47.470;19.080;2023-09-18T01:12:44;5.72;;;4.90;;
53867;SDS011;41577;47.470;19.080;2023-09-18T01:12:59;5.13;;;4.63;;
53867;SDS011;41577;47.470;19.080;2023-09-18T01:13:17;6.45;;;4.82;;
53867;SDS011;41577;47.470;19.080;2023-09-18T01:13:35;14.20;;;5.30;;
53867;SDS011;41577;47.470;19.080;2023-09-18T01:13:51;15.30;;;5.47;;
53867;SDS011;41577;47.470;19.080;2023-09-18T01:14:13;5.72;;;4.10;;
53867;SDS011;41577;47.470;19.080;2023-09-18T01:14:31;6.65;;;4.75;;
53867;SDS011;41577;47.470;19.080;2023-09-18T01:14:50;7.50;;;5.30;;
53867;SDS011;41577;47.470;19.080;2023-09-18T01:15:11;6.97;;;5.20;;
53867;SDS011;41577;47.470;19.080;2023-09-18T01:15:26;4.85;;;4.45;;
53867;SDS011;41577;47.470;19.080;2023-09-18T01:15:44;6.80;;;5.43;;